DAL0241 LICC-LIRF
Flight info
| Callsign | DAL0241 |
|---|---|
| Flight time | 1h 2m |
| Altitude | 32000 |
| Route | LIBR7B LIBRO ENEPA TURMO ESINO ESIN3A |
| Aircraft | B712/L-DGVW/L |
Departure
| Time | 2026-05-04 20:04 |
|---|---|
| Airport | Catania-Fontanarossa Airport (LICC) |
Arrival
| Time | 2026-05-04 21:06 |
|---|---|
| Airport | Rome–Fiumicino Leonardo da Vinci International Airport (LIRF) |
| Time | Latitude | Longitude | Altitude | Speed | Heading |
|---|---|---|---|---|---|
| 2026-05-04 19:39 | 37.46954 | 15.06597 | 49 ft | 0 kts | 17° |
| 2026-05-04 19:53 | 37.46945 | 15.06593 | 49 ft | 7 kts | 17° |
| 2026-05-04 19:53 | 37.46899 | 15.06595 | 49 ft | 7 kts | 0° |
| 2026-05-04 19:53 | 37.46853 | 15.06594 | 49 ft | 7 kts | 12° |
| 2026-05-04 19:54 | 37.46840 | 15.06587 | 49 ft | 0 kts | 88° |
| 2026-05-04 19:59 | 37.46840 | 15.06597 | 49 ft | 4 kts | 88° |
| 2026-05-04 20:00 | 37.46845 | 15.06678 | 49 ft | 15 kts | 84° |
| 2026-05-04 20:00 | 37.46858 | 15.06808 | 49 ft | 14 kts | 84° |
| 2026-05-04 20:00 | 37.46868 | 15.06937 | 49 ft | 18 kts | 84° |
| 2026-05-04 20:00 | 37.46883 | 15.07123 | 49 ft | 24 kts | 84° |
| 2026-05-04 20:01 | 37.46898 | 15.07299 | 49 ft | 16 kts | 83° |
| 2026-05-04 20:01 | 37.46909 | 15.07409 | 49 ft | 15 kts | 83° |
| 2026-05-04 20:01 | 37.46922 | 15.07557 | 49 ft | 18 kts | 83° |
| 2026-05-04 20:01 | 37.46935 | 15.07725 | 49 ft | 21 kts | 85° |
| 2026-05-04 20:02 | 37.46948 | 15.07902 | 49 ft | 18 kts | 84° |
| 2026-05-04 20:02 | 37.46957 | 15.08017 | 49 ft | 9 kts | 87° |
| 2026-05-04 20:02 | 37.46897 | 15.08094 | 49 ft | 14 kts | 199° |
| 2026-05-04 20:02 | 37.46832 | 15.08079 | 49 ft | 8 kts | 194° |
| 2026-05-04 20:03 | 37.46793 | 15.07992 | 49 ft | 17 kts | 261° |
| 2026-05-04 20:03 | 37.46769 | 15.07734 | 49 ft | 56 kts | 263° |
| 2026-05-04 20:03 | 37.46700 | 15.06918 | 49 ft | 128 kts | 264° |
| 2026-05-04 20:03 | 37.46594 | 15.05704 | 639 ft | 136 kts | 264° |
| 2026-05-04 20:04 | 37.46482 | 15.04462 | 1417 ft | 144 kts | 263° |
| 2026-05-04 20:04 | 37.46386 | 15.03189 | 2059 ft | 154 kts | 265° |
| 2026-05-04 20:04 | 37.46301 | 15.01822 | 2559 ft | 160 kts | 265° |
| 2026-05-04 20:04 | 37.46231 | 15.00413 | 3110 ft | 163 kts | 266° |
| 2026-05-04 20:05 | 37.46163 | 14.98903 | 3394 ft | 187 kts | 265° |
| 2026-05-04 20:05 | 37.46080 | 14.97144 | 3566 ft | 216 kts | 266° |
| 2026-05-04 20:05 | 37.45989 | 14.95173 | 4227 ft | 227 kts | 266° |
| 2026-05-04 20:05 | 37.45928 | 14.93155 | 5088 ft | 235 kts | 271° |
| 2026-05-04 20:06 | 37.46199 | 14.91113 | 6011 ft | 239 kts | 289° |
| 2026-05-04 20:06 | 37.47039 | 14.89309 | 6927 ft | 242 kts | 312° |
| 2026-05-04 20:06 | 37.48317 | 14.87929 | 7869 ft | 244 kts | 325° |
| 2026-05-04 20:06 | 37.49758 | 14.86780 | 8760 ft | 247 kts | 329° |
| 2026-05-04 20:07 | 37.51178 | 14.85507 | 9694 ft | 248 kts | 316° |
| 2026-05-04 20:07 | 37.52222 | 14.83778 | 10516 ft | 256 kts | 300° |
| 2026-05-04 20:07 | 37.52998 | 14.81626 | 10753 ft | 287 kts | 291° |
| 2026-05-04 20:07 | 37.53670 | 14.79113 | 10811 ft | 320 kts | 288° |
| 2026-05-04 20:08 | 37.54367 | 14.76316 | 10915 ft | 349 kts | 288° |
| 2026-05-04 20:08 | 37.55130 | 14.73325 | 11270 ft | 365 kts | 289° |
| 2026-05-04 20:08 | 37.55928 | 14.70273 | 12083 ft | 368 kts | 289° |
| 2026-05-04 20:08 | 37.56734 | 14.67198 | 12770 ft | 374 kts | 289° |
| 2026-05-04 20:09 | 37.57557 | 14.64062 | 13397 ft | 379 kts | 289° |
| 2026-05-04 20:09 | 37.58382 | 14.60895 | 14079 ft | 383 kts | 289° |
| 2026-05-04 20:09 | 37.59225 | 14.57647 | 14651 ft | 388 kts | 289° |
| 2026-05-04 20:09 | 37.60070 | 14.54437 | 15421 ft | 386 kts | 289° |
| 2026-05-04 20:10 | 37.60913 | 14.51206 | 16033 ft | 390 kts | 289° |
| 2026-05-04 20:10 | 37.61768 | 14.47954 | 16619 ft | 393 kts | 290° |
| 2026-05-04 20:10 | 37.62728 | 14.44727 | 17228 ft | 396 kts | 292° |
| 2026-05-04 20:10 | 37.63772 | 14.41492 | 17777 ft | 399 kts | 293° |
| 2026-05-04 20:11 | 37.64837 | 14.38262 | 18313 ft | 403 kts | 293° |
| 2026-05-04 20:11 | 37.65914 | 14.34989 | 18897 ft | 404 kts | 293° |
| 2026-05-04 20:11 | 37.66990 | 14.31710 | 19446 ft | 406 kts | 293° |
| 2026-05-04 20:11 | 37.68071 | 14.28411 | 19980 ft | 408 kts | 293° |
| 2026-05-04 20:12 | 37.69154 | 14.25099 | 20491 ft | 410 kts | 293° |
| 2026-05-04 20:12 | 37.70244 | 14.21763 | 20994 ft | 412 kts | 293° |
| 2026-05-04 20:12 | 37.71350 | 14.18376 | 21485 ft | 414 kts | 293° |
| 2026-05-04 20:12 | 37.72448 | 14.15009 | 21946 ft | 416 kts | 293° |
| 2026-05-04 20:13 | 37.73549 | 14.11627 | 22396 ft | 418 kts | 293° |
| 2026-05-04 20:13 | 37.74655 | 14.08229 | 22831 ft | 420 kts | 293° |
| 2026-05-04 20:13 | 37.75847 | 14.04857 | 23259 ft | 421 kts | 298° |
| 2026-05-04 20:13 | 37.77408 | 14.01734 | 23667 ft | 423 kts | 308° |
| 2026-05-04 20:14 | 37.79458 | 13.99054 | 24049 ft | 427 kts | 320° |
| 2026-05-04 20:14 | 37.81909 | 13.96925 | 24409 ft | 431 kts | 327° |
| 2026-05-04 20:14 | 37.84537 | 13.95089 | 24795 ft | 433 kts | 329° |
| 2026-05-04 20:14 | 37.87205 | 13.93318 | 25160 ft | 434 kts | 330° |
| 2026-05-04 20:15 | 37.89887 | 13.91537 | 25472 ft | 437 kts | 329° |
| 2026-05-04 20:15 | 37.92568 | 13.89744 | 25836 ft | 437 kts | 329° |
| 2026-05-04 20:15 | 37.95299 | 13.87912 | 26139 ft | 439 kts | 329° |
| 2026-05-04 20:15 | 37.97991 | 13.86105 | 26467 ft | 440 kts | 329° |
| 2026-05-04 20:16 | 38.00696 | 13.84288 | 26863 ft | 439 kts | 329° |
| 2026-05-04 20:16 | 38.03385 | 13.82480 | 27264 ft | 438 kts | 329° |
| 2026-05-04 20:16 | 38.06069 | 13.80673 | 27688 ft | 436 kts | 329° |
| 2026-05-04 20:16 | 38.08741 | 13.78873 | 28145 ft | 434 kts | 329° |
| 2026-05-04 20:17 | 38.11396 | 13.77083 | 28587 ft | 432 kts | 329° |
| 2026-05-04 20:17 | 38.14039 | 13.75300 | 29035 ft | 430 kts | 329° |
| 2026-05-04 20:17 | 38.16672 | 13.73522 | 29463 ft | 428 kts | 329° |
| 2026-05-04 20:17 | 38.19293 | 13.71750 | 29919 ft | 426 kts | 329° |
| 2026-05-04 20:18 | 38.21893 | 13.69992 | 30363 ft | 424 kts | 329° |
| 2026-05-04 20:18 | 38.24489 | 13.68234 | 30773 ft | 423 kts | 329° |
| 2026-05-04 20:18 | 38.27085 | 13.66475 | 31185 ft | 422 kts | 329° |
| 2026-05-04 20:18 | 38.29672 | 13.64721 | 31551 ft | 422 kts | 329° |
| 2026-05-04 20:19 | 38.32257 | 13.62967 | 31913 ft | 422 kts | 329° |
| 2026-05-04 20:19 | 38.34881 | 13.61184 | 32073 ft | 422 kts | 329° |
| 2026-05-04 20:19 | 38.37425 | 13.59456 | 32124 ft | 420 kts | 329° |
| 2026-05-04 20:20 | 38.42584 | 13.55945 | 32148 ft | 417 kts | 329° |
| 2026-05-04 20:20 | 38.47694 | 13.52461 | 32151 ft | 417 kts | 329° |
| 2026-05-04 20:21 | 38.52810 | 13.48968 | 32151 ft | 419 kts | 329° |
| 2026-05-04 20:21 | 38.60513 | 13.43698 | 32151 ft | 419 kts | 328° |
| 2026-05-04 20:22 | 38.65643 | 13.40181 | 32151 ft | 418 kts | 328° |
| 2026-05-04 20:22 | 38.70756 | 13.36670 | 32152 ft | 418 kts | 328° |
| 2026-05-04 20:23 | 38.75879 | 13.33146 | 32152 ft | 419 kts | 328° |
| 2026-05-04 20:23 | 38.81038 | 13.29591 | 32152 ft | 419 kts | 328° |
| 2026-05-04 20:24 | 38.86163 | 13.26055 | 32153 ft | 419 kts | 328° |
| 2026-05-04 20:24 | 38.91287 | 13.22513 | 32153 ft | 419 kts | 328° |
| 2026-05-04 20:25 | 38.96409 | 13.18967 | 32154 ft | 419 kts | 328° |
| 2026-05-04 20:25 | 39.01539 | 13.15409 | 32154 ft | 419 kts | 328° |
| 2026-05-04 20:26 | 39.06663 | 13.11849 | 32154 ft | 420 kts | 328° |
| 2026-05-04 20:26 | 39.11790 | 13.08282 | 32155 ft | 419 kts | 328° |
| 2026-05-04 20:27 | 39.16943 | 13.04690 | 32159 ft | 419 kts | 328° |
| 2026-05-04 20:27 | 39.22068 | 13.01112 | 32160 ft | 420 kts | 328° |
| 2026-05-04 20:28 | 39.27194 | 12.97527 | 32160 ft | 421 kts | 328° |
| 2026-05-04 20:28 | 39.32330 | 12.93930 | 32160 ft | 421 kts | 328° |
| 2026-05-04 20:29 | 39.37468 | 12.90325 | 32161 ft | 421 kts | 327° |
| 2026-05-04 20:29 | 39.42604 | 12.86714 | 32161 ft | 421 kts | 327° |
| 2026-05-04 20:30 | 39.47748 | 12.83093 | 32162 ft | 421 kts | 327° |
| 2026-05-04 20:30 | 39.52919 | 12.79446 | 32162 ft | 421 kts | 327° |
| 2026-05-04 20:31 | 39.58051 | 12.75820 | 32162 ft | 422 kts | 327° |
| 2026-05-04 20:31 | 39.63197 | 12.72179 | 32157 ft | 422 kts | 327° |
| 2026-05-04 20:32 | 39.68342 | 12.68531 | 32156 ft | 423 kts | 327° |
| 2026-05-04 20:32 | 39.73498 | 12.64870 | 32155 ft | 423 kts | 327° |
| 2026-05-04 20:33 | 39.78687 | 12.61179 | 32155 ft | 423 kts | 327° |
| 2026-05-04 20:33 | 39.83814 | 12.57525 | 32154 ft | 424 kts | 327° |
| 2026-05-04 20:34 | 39.89013 | 12.53815 | 32154 ft | 425 kts | 327° |
| 2026-05-04 20:34 | 39.94194 | 12.50110 | 32154 ft | 425 kts | 327° |
| 2026-05-04 20:35 | 39.99365 | 12.46406 | 32149 ft | 425 kts | 327° |
| 2026-05-04 20:35 | 40.04532 | 12.42700 | 32148 ft | 425 kts | 327° |
| 2026-05-04 20:36 | 40.09704 | 12.38982 | 32154 ft | 425 kts | 327° |
| 2026-05-04 20:36 | 40.14881 | 12.35254 | 32156 ft | 425 kts | 327° |
| 2026-05-04 20:37 | 40.20079 | 12.31504 | 32157 ft | 425 kts | 327° |
| 2026-05-04 20:37 | 40.25250 | 12.27768 | 32154 ft | 425 kts | 327° |
| 2026-05-04 20:38 | 40.30418 | 12.24027 | 32154 ft | 425 kts | 327° |
| 2026-05-04 20:38 | 40.35587 | 12.20279 | 32152 ft | 425 kts | 327° |
| 2026-05-04 20:39 | 40.40754 | 12.16525 | 32145 ft | 425 kts | 327° |
| 2026-05-04 20:39 | 40.45949 | 12.12745 | 32144 ft | 425 kts | 327° |
| 2026-05-04 20:40 | 40.51112 | 12.08981 | 32145 ft | 425 kts | 326° |
| 2026-05-04 20:40 | 40.56264 | 12.05220 | 32143 ft | 424 kts | 326° |
| 2026-05-04 20:41 | 40.61418 | 12.01449 | 32141 ft | 424 kts | 326° |
| 2026-05-04 20:41 | 40.63997 | 11.99558 | 31746 ft | 431 kts | 326° |
| 2026-05-04 20:41 | 40.66629 | 11.97621 | 30802 ft | 435 kts | 326° |
| 2026-05-04 20:42 | 40.69237 | 11.95699 | 30340 ft | 425 kts | 326° |
| 2026-05-04 20:42 | 40.71802 | 11.93826 | 29753 ft | 419 kts | 327° |
| 2026-05-04 20:42 | 40.74337 | 11.91962 | 29144 ft | 418 kts | 326° |
| 2026-05-04 20:42 | 40.76897 | 11.90082 | 28536 ft | 426 kts | 326° |
| 2026-05-04 20:43 | 40.79514 | 11.88146 | 27903 ft | 437 kts | 327° |
| 2026-05-04 20:43 | 40.82218 | 11.86157 | 27206 ft | 445 kts | 327° |
| 2026-05-04 20:43 | 40.85066 | 11.84436 | 26458 ft | 457 kts | 336° |
| 2026-05-04 20:43 | 40.88162 | 11.83355 | 25712 ft | 465 kts | 346° |
| 2026-05-04 20:44 | 40.90291 | 11.82999 | 25178 ft | 469 kts | 351° |
| 2026-05-04 20:44 | 40.94650 | 11.82625 | 24207 ft | 471 kts | 353° |
| 2026-05-04 20:44 | 40.97897 | 11.82411 | 23408 ft | 464 kts | 354° |
| 2026-05-04 20:44 | 41.01084 | 11.82206 | 22644 ft | 455 kts | 353° |
| 2026-05-04 20:45 | 41.04206 | 11.81971 | 21916 ft | 447 kts | 353° |
| 2026-05-04 20:45 | 41.07278 | 11.81743 | 21195 ft | 439 kts | 353° |
| 2026-05-04 20:45 | 41.10302 | 11.81507 | 20473 ft | 432 kts | 354° |
| 2026-05-04 20:45 | 41.13317 | 11.81302 | 19754 ft | 426 kts | 354° |
| 2026-05-04 20:46 | 41.16214 | 11.81106 | 19059 ft | 420 kts | 353° |
| 2026-05-04 20:46 | 41.19147 | 11.80881 | 18359 ft | 414 kts | 353° |
| 2026-05-04 20:46 | 41.21042 | 11.80741 | 17915 ft | 412 kts | 354° |
| 2026-05-04 20:46 | 41.23879 | 11.80532 | 17526 ft | 404 kts | 354° |
| 2026-05-04 20:47 | 41.26636 | 11.80347 | 17386 ft | 390 kts | 354° |
| 2026-05-04 20:47 | 41.30159 | 11.80106 | 17164 ft | 369 kts | 353° |
| 2026-05-04 20:47 | 41.32675 | 11.79911 | 16974 ft | 357 kts | 353° |
| 2026-05-04 20:47 | 41.34301 | 11.79789 | 16884 ft | 354 kts | 353° |
| 2026-05-04 20:48 | 41.36755 | 11.79614 | 16698 ft | 352 kts | 355° |
| 2026-05-04 20:48 | 41.39194 | 11.79750 | 16518 ft | 350 kts | 3° |
| 2026-05-04 20:48 | 41.41650 | 11.80207 | 16155 ft | 355 kts | 7° |
| 2026-05-04 20:48 | 41.44087 | 11.80784 | 15738 ft | 356 kts | 7° |
| 2026-05-04 20:49 | 41.46523 | 11.81362 | 15320 ft | 356 kts | 7° |
| 2026-05-04 20:49 | 41.48944 | 11.81963 | 14898 ft | 354 kts | 7° |
| 2026-05-04 20:49 | 41.51355 | 11.82536 | 14471 ft | 349 kts | 7° |
| 2026-05-04 20:49 | 41.53731 | 11.83098 | 14055 ft | 345 kts | 7° |
| 2026-05-04 20:50 | 41.56070 | 11.83622 | 13767 ft | 337 kts | 6° |
| 2026-05-04 20:50 | 41.58359 | 11.83906 | 13608 ft | 330 kts | 0° |
| 2026-05-04 20:50 | 41.60659 | 11.84058 | 13433 ft | 332 kts | 0° |
| 2026-05-04 20:50 | 41.62973 | 11.84259 | 13252 ft | 334 kts | 2° |
| 2026-05-04 20:51 | 41.65256 | 11.84494 | 13015 ft | 326 kts | 2° |
| 2026-05-04 20:51 | 41.67484 | 11.84730 | 12812 ft | 317 kts | 2° |
| 2026-05-04 20:51 | 41.69655 | 11.84964 | 12622 ft | 314 kts | 2° |
| 2026-05-04 20:51 | 41.71868 | 11.85196 | 12435 ft | 316 kts | 2° |
| 2026-05-04 20:52 | 41.74040 | 11.85366 | 12292 ft | 317 kts | 1° |
| 2026-05-04 20:52 | 41.76274 | 11.85611 | 12101 ft | 318 kts | 3° |
| 2026-05-04 20:52 | 41.78456 | 11.85902 | 11862 ft | 313 kts | 4° |
| 2026-05-04 20:52 | 41.80625 | 11.86160 | 10935 ft | 313 kts | 2° |
| 2026-05-04 20:53 | 41.82756 | 11.86359 | 10369 ft | 299 kts | 2° |
| 2026-05-04 20:53 | 41.84790 | 11.86554 | 9892 ft | 285 kts | 3° |
| 2026-05-04 20:53 | 41.86750 | 11.86736 | 9227 ft | 281 kts | 4° |
| 2026-05-04 20:53 | 41.88715 | 11.86955 | 8582 ft | 286 kts | 5° |
| 2026-05-04 20:54 | 41.90689 | 11.87176 | 8377 ft | 282 kts | 4° |
| 2026-05-04 20:54 | 41.92621 | 11.87383 | 8174 ft | 276 kts | 4° |
| 2026-05-04 20:54 | 41.94528 | 11.87583 | 7980 ft | 275 kts | 4° |
| 2026-05-04 20:54 | 41.96401 | 11.87782 | 7805 ft | 269 kts | 4° |
| 2026-05-04 20:55 | 41.98297 | 11.87980 | 7399 ft | 268 kts | 4° |
| 2026-05-04 20:55 | 42.00130 | 11.88155 | 7020 ft | 262 kts | 5° |
| 2026-05-04 20:55 | 42.01932 | 11.88363 | 6608 ft | 259 kts | 5° |
| 2026-05-04 20:55 | 42.03710 | 11.88564 | 6364 ft | 254 kts | 5° |
| 2026-05-04 20:56 | 42.05490 | 11.88756 | 6126 ft | 259 kts | 5° |
| 2026-05-04 20:56 | 42.07231 | 11.89308 | 5829 ft | 259 kts | 25° |
| 2026-05-04 20:56 | 42.08673 | 11.90634 | 5706 ft | 249 kts | 49° |
| 2026-05-04 20:56 | 42.09642 | 11.92594 | 5369 ft | 256 kts | 65° |
| 2026-05-04 20:57 | 42.10314 | 11.94782 | 5188 ft | 252 kts | 76° |
| 2026-05-04 20:57 | 42.10756 | 11.97046 | 4914 ft | 242 kts | 79° |
| 2026-05-04 20:57 | 42.11165 | 11.99182 | 4635 ft | 231 kts | 79° |
| 2026-05-04 20:57 | 42.11580 | 12.01287 | 4277 ft | 229 kts | 78° |
| 2026-05-04 20:58 | 42.11965 | 12.03328 | 4132 ft | 221 kts | 84° |
| 2026-05-04 20:58 | 42.11687 | 12.05245 | 3998 ft | 205 kts | 124° |
| 2026-05-04 20:58 | 42.10762 | 12.06618 | 3989 ft | 193 kts | 139° |
| 2026-05-04 20:58 | 42.09787 | 12.07813 | 3986 ft | 192 kts | 146° |
| 2026-05-04 20:59 | 42.08548 | 12.08574 | 3967 ft | 201 kts | 167° |
| 2026-05-04 20:59 | 42.07204 | 12.09168 | 3992 ft | 206 kts | 157° |
| 2026-05-04 20:59 | 42.05987 | 12.10153 | 3996 ft | 201 kts | 145° |
| 2026-05-04 20:59 | 42.04949 | 12.11215 | 3980 ft | 176 kts | 145° |
| 2026-05-04 21:00 | 42.04046 | 12.12197 | 3919 ft | 162 kts | 141° |
| 2026-05-04 21:00 | 42.03276 | 12.13264 | 3905 ft | 155 kts | 133° |
| 2026-05-04 21:00 | 42.02689 | 12.14478 | 3920 ft | 159 kts | 121° |
| 2026-05-04 21:00 | 42.02214 | 12.15854 | 3943 ft | 159 kts | 117° |
| 2026-05-04 21:01 | 42.01748 | 12.17181 | 3782 ft | 155 kts | 123° |
| 2026-05-04 21:01 | 42.01077 | 12.18310 | 3488 ft | 155 kts | 139° |
| 2026-05-04 21:01 | 42.00217 | 12.19173 | 3203 ft | 155 kts | 150° |
| 2026-05-04 21:01 | 41.99252 | 12.19823 | 2948 ft | 157 kts | 158° |
| 2026-05-04 21:02 | 41.98248 | 12.20353 | 2741 ft | 155 kts | 161° |
| 2026-05-04 21:02 | 41.97238 | 12.20823 | 2576 ft | 152 kts | 162° |
| 2026-05-04 21:02 | 41.96232 | 12.21258 | 2373 ft | 152 kts | 163° |
| 2026-05-04 21:02 | 41.95229 | 12.21692 | 2157 ft | 150 kts | 162° |
| 2026-05-04 21:03 | 41.94259 | 12.22101 | 1965 ft | 144 kts | 163° |
| 2026-05-04 21:03 | 41.93309 | 12.22485 | 1798 ft | 143 kts | 163° |
| 2026-05-04 21:03 | 41.92348 | 12.22885 | 1628 ft | 144 kts | 162° |
| 2026-05-04 21:03 | 41.91389 | 12.23283 | 1434 ft | 148 kts | 161° |
| 2026-05-04 21:04 | 41.90390 | 12.23712 | 1230 ft | 149 kts | 161° |
| 2026-05-04 21:04 | 41.89422 | 12.24123 | 1026 ft | 143 kts | 161° |
| 2026-05-04 21:04 | 41.88482 | 12.24521 | 845 ft | 142 kts | 161° |
| 2026-05-04 21:04 | 41.87542 | 12.24915 | 658 ft | 142 kts | 162° |
| 2026-05-04 21:05 | 41.86606 | 12.25302 | 471 ft | 139 kts | 161° |
| 2026-05-04 21:05 | 41.85729 | 12.25673 | 293 ft | 129 kts | 161° |
| 2026-05-04 21:05 | 41.84871 | 12.26035 | 125 ft | 131 kts | 161° |
| 2026-05-04 21:05 | 41.84018 | 12.26391 | 23 ft | 119 kts | 161° |
| 2026-05-04 21:06 | 41.83416 | 12.26642 | 23 ft | 62 kts | 162° |
| 2026-05-04 21:06 | 41.83058 | 12.26794 | 23 ft | 50 kts | 163° |
| 2026-05-04 21:06 | 41.82820 | 12.26888 | 23 ft | 30 kts | 171° |
| 2026-05-04 21:06 | 41.82683 | 12.26863 | 23 ft | 15 kts | 195° |
| 2026-05-04 21:07 | 41.82599 | 12.26839 | 23 ft | 13 kts | 190° |
| 2026-05-04 21:07 | 41.82486 | 12.26809 | 23 ft | 20 kts | 192° |
| 2026-05-04 21:07 | 41.82339 | 12.26776 | 23 ft | 23 kts | 174° |
| 2026-05-04 21:07 | 41.82179 | 12.26837 | 23 ft | 19 kts | 162° |
| 2026-05-04 21:08 | 41.82047 | 12.26892 | 23 ft | 22 kts | 162° |
| 2026-05-04 21:08 | 41.81878 | 12.26963 | 23 ft | 31 kts | 163° |
| 2026-05-04 21:08 | 41.81674 | 12.27050 | 23 ft | 29 kts | 162° |
| 2026-05-04 21:08 | 41.81490 | 12.27127 | 23 ft | 29 kts | 162° |
| 2026-05-04 21:09 | 41.81289 | 12.27210 | 23 ft | 31 kts | 165° |
| 2026-05-04 21:09 | 41.81087 | 12.27295 | 23 ft | 29 kts | 163° |
| 2026-05-04 21:09 | 41.80887 | 12.27374 | 23 ft | 26 kts | 180° |
| 2026-05-04 21:09 | 41.80735 | 12.27318 | 23 ft | 21 kts | 191° |
| 2026-05-04 21:10 | 41.80637 | 12.27194 | 23 ft | 19 kts | 241° |
| 2026-05-04 21:10 | 41.80594 | 12.27024 | 23 ft | 21 kts | 250° |
| 2026-05-04 21:10 | 41.80540 | 12.26836 | 23 ft | 22 kts | 250° |
| 2026-05-04 21:10 | 41.80479 | 12.26611 | 23 ft | 29 kts | 249° |
| 2026-05-04 21:11 | 41.80430 | 12.26434 | 23 ft | 9 kts | 250° |
| 2026-05-04 21:11 | 41.80377 | 12.26363 | 23 ft | 13 kts | 162° |
| 2026-05-04 21:11 | 41.80351 | 12.26375 | 23 ft | 0 kts | 161° |
| 2026-05-04 21:12 | 41.80350 | 12.26376 | 23 ft | 3 kts | 161° |
| 2026-05-04 21:12 | 41.80269 | 12.26415 | 23 ft | 15 kts | 163° |
| 2026-05-04 21:13 | 41.80175 | 12.26383 | 23 ft | 21 kts | 206° |
| 2026-05-04 21:13 | 41.80042 | 12.26299 | 23 ft | 21 kts | 204° |
| 2026-05-04 21:13 | 41.79911 | 12.26223 | 23 ft | 20 kts | 203° |
| 2026-05-04 21:13 | 41.79785 | 12.26152 | 23 ft | 19 kts | 202° |
| 2026-05-04 21:14 | 41.79679 | 12.26059 | 23 ft | 18 kts | 205° |
| 2026-05-04 21:14 | 41.79592 | 12.25999 | 23 ft | 9 kts | 244° |
| 2026-05-04 21:14 | 41.79593 | 12.25930 | 23 ft | 6 kts | 291° |
| 2026-05-04 21:14 | 41.79595 | 12.25925 | 23 ft | 0 kts | 305° |